createdAt,value
2023-02-08T00:00:37.555Z, 39.32
2023-02-08T00:01:37.446Z, 39.33
2023-02-08T00:02:37.466Z, 39.31
2023-02-08T00:03:37.496Z, 39.30
2023-02-08T00:04:37.455Z, 39.34
2023-02-08T00:05:37.554Z, 39.30
2023-02-08T00:06:37.529Z, 39.26
2023-02-08T00:07:37.519Z, 39.25
2023-02-08T00:08:37.524Z, 39.22
2023-02-08T00:09:37.532Z, 39.19
2023-02-08T00:10:37.534Z, 39.17
2023-02-08T00:11:37.625Z, 39.17
2023-02-08T00:12:37.647Z, 39.16
2023-02-08T00:13:37.633Z, 39.08
2023-02-08T00:14:37.614Z, 39.12
2023-02-08T00:15:37.627Z, 39.08
2023-02-08T00:16:37.618Z, 39.09
2023-02-08T00:17:37.653Z, 39.04
2023-02-08T00:18:37.657Z, 39.00
2023-02-08T00:19:37.686Z, 38.93
2023-02-08T00:20:38.006Z, 38.87
2023-02-08T00:21:37.743Z, 38.87
2023-02-08T00:22:37.767Z, 38.92
2023-02-08T00:23:37.783Z, 38.92
2023-02-08T00:24:37.807Z, 38.91
2023-02-08T00:25:37.788Z, 38.84
2023-02-08T00:26:37.785Z, 38.87
2023-02-08T00:27:37.803Z, 38.84
2023-02-08T00:28:37.796Z, 38.81
2023-02-08T00:29:37.806Z, 38.78
2023-02-08T00:30:37.923Z, 38.75
2023-02-08T00:31:37.975Z, 38.75
2023-02-08T00:32:37.903Z, 38.78
2023-02-08T00:33:37.931Z, 38.75
2023-02-08T00:34:37.939Z, 38.67
2023-02-08T00:35:37.963Z, 38.71
2023-02-08T00:36:37.955Z, 38.70
2023-02-08T00:37:37.992Z, 38.69
2023-02-08T00:38:37.967Z, 38.60
2023-02-08T00:39:37.958Z, 38.62
2023-02-08T00:40:38.499Z, 38.55
2023-02-08T00:41:38.007Z, 38.59
2023-02-08T00:42:38.061Z, 38.58
2023-02-08T00:43:38.032Z, 38.57
2023-02-08T00:44:38.032Z, 38.47
2023-02-08T00:45:38.043Z, 38.48
2023-02-08T00:46:38.067Z, 38.48
2023-02-08T00:47:38.046Z, 38.41
2023-02-08T00:48:38.066Z, 38.38
2023-02-08T00:49:38.078Z, 38.35
2023-02-08T00:50:38.510Z, 38.31
2023-02-08T00:51:38.092Z, 38.27
2023-02-08T00:52:38.181Z, 38.27
2023-02-08T00:53:38.232Z, 38.30
2023-02-08T00:54:38.172Z, 38.27
2023-02-08T00:55:38.169Z, 38.25
2023-02-08T00:56:38.174Z, 38.24
2023-02-08T00:57:38.182Z, 38.28
2023-02-08T00:58:38.192Z, 38.24
2023-02-08T00:59:38.282Z, 38.28
2023-02-08T01:00:38.716Z, 38.29
2023-02-08T01:01:38.305Z, 38.21
2023-02-08T01:02:38.301Z, 38.16
2023-02-08T01:03:38.276Z, 38.17
2023-02-08T01:04:38.274Z, 38.20
2023-02-08T01:05:38.276Z, 38.18
2023-02-08T01:06:38.297Z, 38.15
2023-02-08T01:07:38.293Z, 38.16
2023-02-08T01:08:38.324Z, 38.12
2023-02-08T01:09:38.341Z, 38.06
2023-02-08T01:10:38.792Z, 38.05
2023-02-08T01:11:38.430Z, 38.01
2023-02-08T01:12:38.403Z, 38.04
2023-02-08T01:13:38.404Z, 38.04
2023-02-08T01:14:38.406Z, 37.97
2023-02-08T01:15:38.418Z, 37.94
2023-02-08T01:16:38.476Z, 37.87
2023-02-08T01:17:38.443Z, 37.93
2023-02-08T01:18:38.443Z, 37.90
2023-02-08T01:19:38.458Z, 37.85
2023-02-08T01:20:38.943Z, 37.79
2023-02-08T01:21:38.500Z, 37.79
2023-02-08T01:22:38.578Z, 37.82
2023-02-08T01:23:38.567Z, 37.79
2023-02-08T01:24:38.596Z, 37.74
2023-02-08T01:25:38.562Z, 37.68
2023-02-08T01:26:38.562Z, 37.64
2023-02-08T01:27:38.651Z, 37.62
2023-02-08T01:28:38.629Z, 37.66
2023-02-08T01:29:38.645Z, 37.68
2023-02-08T01:30:38.866Z, 37.66
2023-02-08T01:31:38.693Z, 37.69
2023-02-08T01:32:38.633Z, 37.64
2023-02-08T01:33:38.643Z, 37.65
2023-02-08T01:34:38.661Z, 37.60
2023-02-08T01:35:38.674Z, 37.57
2023-02-08T01:36:38.685Z, 37.59
2023-02-08T01:37:38.704Z, 37.60
2023-02-08T01:38:38.728Z, 37.54
2023-02-08T01:39:38.797Z, 37.53
2023-02-08T01:40:39.077Z, 37.47
2023-02-08T01:41:38.765Z, 37.47
2023-02-08T01:42:38.759Z, 37.45
2023-02-08T01:43:38.778Z, 37.43
2023-02-08T01:44:38.801Z, 37.41
2023-02-08T01:45:38.847Z, 37.37
2023-02-08T01:46:38.826Z, 37.33
2023-02-08T01:47:38.834Z, 37.32
2023-02-08T01:48:38.905Z, 37.31
2023-02-08T01:49:38.879Z, 37.33
2023-02-08T01:50:39.384Z, 37.32
2023-02-08T01:51:38.945Z, 37.27
2023-02-08T01:52:38.934Z, 37.26
2023-02-08T01:53:38.916Z, 37.31
2023-02-08T01:54:38.940Z, 37.28
2023-02-08T01:55:38.958Z, 37.20
2023-02-08T01:56:39.008Z, 37.17
2023-02-08T01:57:38.977Z, 37.16
2023-02-08T01:58:38.976Z, 37.16
2023-02-08T01:59:38.967Z, 37.12
2023-02-08T02:00:39.327Z, 37.20
2023-02-08T02:01:39.005Z, 37.15
2023-02-08T02:02:39.015Z, 37.17
2023-02-08T02:03:39.077Z, 37.11
2023-02-08T02:04:39.075Z, 37.12
2023-02-08T02:05:39.058Z, 37.11
2023-02-08T02:06:39.049Z, 37.08
2023-02-08T02:07:39.128Z, 37.04
2023-02-08T02:08:39.121Z, 37.05
2023-02-08T02:09:39.133Z, 37.09
2023-02-08T02:10:39.483Z, 37.07
2023-02-08T02:11:39.116Z, 37.05
2023-02-08T02:12:39.186Z, 37.05
2023-02-08T02:13:39.210Z, 37.06
2023-02-08T02:14:39.186Z, 37.01
2023-02-08T02:15:39.187Z, 37.00
2023-02-08T02:16:39.230Z, 36.98
2023-02-08T02:17:39.182Z, 36.94
2023-02-08T02:18:39.253Z, 36.92
2023-02-08T02:19:39.271Z, 36.94
2023-02-08T02:20:39.708Z, 36.90
2023-02-08T02:21:39.285Z, 36.87
2023-02-08T02:22:39.282Z, 36.89
2023-02-08T02:23:39.312Z, 36.83
2023-02-08T02:24:39.333Z, 36.86
2023-02-08T02:25:39.306Z, 36.88
2023-02-08T02:26:39.314Z, 36.75
2023-02-08T02:27:39.307Z, 36.77
2023-02-08T02:28:39.312Z, 36.81
2023-02-08T02:29:39.324Z, 36.78
2023-02-08T02:30:39.728Z, 36.68
2023-02-08T02:31:39.409Z, 36.67
2023-02-08T02:32:39.411Z, 36.64
2023-02-08T02:33:39.370Z, 36.59
2023-02-08T02:34:39.371Z, 36.62
2023-02-08T02:35:39.382Z, 36.60
2023-02-08T02:36:39.457Z, 36.59
2023-02-08T02:37:39.451Z, 36.65
2023-02-08T02:38:39.424Z, 36.59
2023-02-08T02:39:39.424Z, 36.54
2023-02-08T02:40:39.733Z, 36.51
2023-02-08T02:41:39.489Z, 36.53
2023-02-08T02:42:39.486Z, 36.48
2023-02-08T02:43:39.501Z, 36.46
2023-02-08T02:44:39.488Z, 36.45
2023-02-08T02:45:39.514Z, 36.48
2023-02-08T02:46:39.569Z, 36.44
2023-02-08T02:47:39.580Z, 36.43
2023-02-08T02:48:39.569Z, 36.40
2023-02-08T02:49:39.550Z, 36.39
2023-02-08T02:50:39.807Z, 36.33
2023-02-08T02:51:39.580Z, 36.31
2023-02-08T02:52:39.611Z, 36.32
2023-02-08T02:53:39.595Z, 36.34
2023-02-08T02:54:39.591Z, 36.33
2023-02-08T02:55:39.663Z, 36.27
2023-02-08T02:56:39.688Z, 36.29
2023-02-08T02:57:39.693Z, 36.28
2023-02-08T02:58:39.702Z, 36.25
2023-02-08T02:59:39.698Z, 36.23
2023-02-08T03:00:40.010Z, 36.21
2023-02-08T03:01:39.732Z, 36.21
2023-02-08T03:02:39.702Z, 36.22
2023-02-08T03:03:39.773Z, 36.23
2023-02-08T03:04:39.789Z, 36.23
2023-02-08T03:05:39.786Z, 36.18
2023-02-08T03:06:39.756Z, 36.15
2023-02-08T03:07:39.827Z, 36.18
2023-02-08T03:08:39.826Z, 36.16
2023-02-08T03:09:39.811Z, 36.18
2023-02-08T03:10:40.192Z, 36.14
2023-02-08T03:11:39.830Z, 36.12
2023-02-08T03:12:39.811Z, 36.10
2023-02-08T03:13:39.847Z, 36.11
2023-02-08T03:14:39.846Z, 36.10
2023-02-08T03:15:39.843Z, 36.07
2023-02-08T03:16:39.863Z, 36.04
2023-02-08T03:17:39.840Z, 36.05
2023-02-08T03:18:39.933Z, 36.00
2023-02-08T03:19:39.907Z, 35.98
2023-02-08T03:20:40.115Z, 35.94
2023-02-08T03:21:39.921Z, 35.91
2023-02-08T03:22:39.926Z, 35.92
2023-02-08T03:23:39.948Z, 35.90
2023-02-08T03:24:39.986Z, 35.91
2023-02-08T03:25:39.973Z, 35.96
2023-02-08T03:26:40.000Z, 35.91
2023-02-08T03:27:40.012Z, 35.90
2023-02-08T03:28:40.001Z, 35.86
2023-02-08T03:29:40.037Z, 35.82
2023-02-08T03:30:40.334Z, 35.77
2023-02-08T03:31:40.146Z, 35.76
2023-02-08T03:32:40.006Z, 35.74
2023-02-08T03:33:40.009Z, 35.74
2023-02-08T03:34:40.016Z, 35.72
2023-02-08T03:35:40.019Z, 35.69
2023-02-08T03:36:40.072Z, 35.69
2023-02-08T03:37:40.116Z, 35.69
2023-02-08T03:38:40.128Z, 35.67
2023-02-08T03:39:40.153Z, 35.69
2023-02-08T03:40:40.555Z, 35.72
2023-02-08T03:41:40.171Z, 35.66
2023-02-08T03:42:40.155Z, 35.64
2023-02-08T03:43:40.190Z, 35.65
2023-02-08T03:44:40.198Z, 35.63
2023-02-08T03:45:40.202Z, 35.64
2023-02-08T03:46:40.211Z, 35.63
2023-02-08T03:47:40.221Z, 35.64
2023-02-08T03:48:40.205Z, 35.57
2023-02-08T03:49:40.209Z, 35.52
2023-02-08T03:50:40.504Z, 35.49
2023-02-08T03:51:40.198Z, 35.50
2023-02-08T03:52:40.205Z, 35.42
2023-02-08T03:53:40.201Z, 35.41
2023-02-08T03:54:40.212Z, 35.43
2023-02-08T03:55:40.282Z, 35.45
2023-02-08T03:56:40.270Z, 35.45
2023-02-08T03:57:40.270Z, 35.37
2023-02-08T03:58:40.317Z, 35.39
2023-02-08T03:59:40.292Z, 35.33
2023-02-08T04:00:40.614Z, 35.32
2023-02-08T04:01:40.323Z, 35.33
2023-02-08T04:02:40.342Z, 35.33
2023-02-08T04:03:40.295Z, 35.34
2023-02-08T04:04:40.367Z, 35.34
2023-02-08T04:05:40.369Z, 35.27
2023-02-08T04:06:40.403Z, 35.24
2023-02-08T04:07:40.397Z, 35.24
2023-02-08T04:08:40.392Z, 35.24
2023-02-08T04:09:40.404Z, 35.26
2023-02-08T04:10:40.685Z, 35.21
2023-02-08T04:11:40.436Z, 35.20
2023-02-08T04:12:40.436Z, 35.19
2023-02-08T04:13:40.424Z, 35.19
2023-02-08T04:14:40.440Z, 35.19
2023-02-08T04:15:40.465Z, 35.18
2023-02-08T04:16:40.476Z, 35.16
2023-02-08T04:17:40.472Z, 35.14
2023-02-08T04:18:40.450Z, 35.14
2023-02-08T04:19:40.456Z, 35.15
2023-02-08T04:20:40.839Z, 35.14
2023-02-08T04:21:40.526Z, 35.11
2023-02-08T04:22:40.541Z, 35.06
2023-02-08T04:23:40.516Z, 35.07
2023-02-08T04:24:40.517Z, 35.03
2023-02-08T04:25:40.532Z, 35.02
2023-02-08T04:26:40.531Z, 35.04
2023-02-08T04:27:40.549Z, 35.00
2023-02-08T04:28:40.582Z, 34.98
2023-02-08T04:29:40.592Z, 34.98
2023-02-08T04:30:40.953Z, 34.95
2023-02-08T04:31:40.721Z, 35.79
2023-02-08T04:32:40.627Z, 36.92
2023-02-08T04:33:40.639Z, 37.13
2023-02-08T04:34:40.718Z, 37.10
2023-02-08T04:35:40.750Z, 37.03
2023-02-08T04:36:40.743Z, 36.87
2023-02-08T04:37:40.715Z, 36.53
2023-02-08T04:38:40.735Z, 35.95
2023-02-08T04:39:40.723Z, 35.12
2023-02-08T04:40:41.076Z, 33.98
2023-02-08T04:41:40.738Z, 32.39
2023-02-08T04:42:40.757Z, 33.61
2023-02-08T04:43:40.744Z, 36.22
2023-02-08T04:44:40.785Z, 37.96
2023-02-08T04:45:40.773Z, 39.33
2023-02-08T04:46:40.825Z, 40.27
2023-02-08T04:47:40.783Z, 41.10
2023-02-08T04:48:40.808Z, 41.79
2023-02-08T04:49:40.880Z, 42.44
2023-02-08T04:50:41.224Z, 43.15
2023-02-08T04:51:40.849Z, 43.73
2023-02-08T04:52:40.851Z, 44.36
2023-02-08T04:53:40.853Z, 44.83
2023-02-08T04:54:41.081Z, 45.56
2023-02-08T04:55:40.911Z, 46.27
2023-02-08T04:56:40.910Z, 46.83
2023-02-08T04:57:40.902Z, 47.58
2023-02-08T04:58:40.911Z, 48.54
2023-02-08T04:59:40.954Z, 49.31
2023-02-08T05:00:41.321Z, 49.99
2023-02-08T05:01:41.069Z, 51.57
2023-02-08T05:02:41.004Z, 53.09
2023-02-08T05:03:40.975Z, 53.81
2023-02-08T05:04:40.968Z, 55.15
2023-02-08T05:05:41.030Z, 57.73
2023-02-08T05:06:41.015Z, 60.88
2023-02-08T05:07:40.997Z, 67.55
2023-02-08T05:08:41.010Z, 54.08
2023-02-08T05:09:40.993Z, 53.33
2023-02-08T05:10:41.420Z, 54.17
2023-02-08T05:11:41.084Z, 55.83
2023-02-08T05:12:41.057Z, 58.88
2023-02-08T05:13:41.060Z, 67.61
2023-02-08T05:14:41.067Z, 62.55
2023-02-08T05:15:41.085Z, 54.04
2023-02-08T05:16:41.182Z, 54.53
2023-02-08T05:17:41.158Z, 55.99
2023-02-08T05:18:41.148Z, 58.11
2023-02-08T05:19:41.138Z, 61.43
2023-02-08T05:20:41.384Z, 67.63
2023-02-08T05:21:41.212Z, 54.14
2023-02-08T05:22:41.235Z, 54.23
2023-02-08T05:23:41.231Z, 55.05
2023-02-08T05:24:41.207Z, 55.50
2023-02-08T05:25:41.214Z, 51.95
2023-02-08T05:26:41.249Z, 48.85
2023-02-08T05:27:41.307Z, 47.26
2023-02-08T05:28:41.314Z, 46.31
2023-02-08T05:29:41.330Z, 45.69
2023-02-08T05:30:41.555Z, 45.31
2023-02-08T05:31:41.372Z, 45.15
2023-02-08T05:32:41.309Z, 48.20
2023-02-08T05:33:41.408Z, 53.45
2023-02-08T05:34:41.366Z, 57.33
2023-02-08T05:35:41.335Z, 60.91
2023-02-08T05:36:41.337Z, 63.69
2023-02-08T05:37:41.344Z, 64.00
2023-02-08T05:38:41.401Z, 63.47
2023-02-08T05:39:41.443Z, 62.57
2023-02-08T05:40:41.668Z, 61.49
2023-02-08T05:41:41.426Z, 60.29
2023-02-08T05:42:41.411Z, 59.12
2023-02-08T05:43:41.414Z, 57.98
2023-02-08T05:44:41.450Z, 56.88
2023-02-08T05:45:41.439Z, 55.86
2023-02-08T05:46:41.492Z, 54.88
2023-02-08T05:47:41.447Z, 53.93
2023-02-08T05:48:41.474Z, 52.91
2023-02-08T05:49:41.495Z, 51.88
2023-02-08T05:50:41.850Z, 50.79
2023-02-08T05:51:41.517Z, 51.15
2023-02-08T05:52:41.519Z, 55.47
2023-02-08T05:53:41.524Z, 59.76
2023-02-08T05:54:41.568Z, 62.40
2023-02-08T05:55:41.577Z, 61.95
2023-02-08T05:56:41.649Z, 60.82
2023-02-08T05:57:41.638Z, 59.68
2023-02-08T05:58:41.656Z, 58.63
2023-02-08T05:59:41.652Z, 57.62
2023-02-08T06:00:41.944Z, 56.59
2023-02-08T06:01:41.683Z, 55.49
2023-02-08T06:02:41.746Z, 54.33
2023-02-08T06:03:41.660Z, 53.22
2023-02-08T06:04:41.645Z, 52.25
2023-02-08T06:05:41.639Z, 51.28
2023-02-08T06:06:41.687Z, 50.41
2023-02-08T06:07:41.705Z, 51.96
2023-02-08T06:08:41.663Z, 57.18
2023-02-08T06:09:41.683Z, 61.66
2023-02-08T06:10:42.025Z, 62.56
2023-02-08T06:11:41.703Z, 61.52
2023-02-08T06:12:41.791Z, 60.41
2023-02-08T06:13:41.777Z, 59.42
2023-02-08T06:14:41.760Z, 58.66
2023-02-08T06:15:41.807Z, 57.88
2023-02-08T06:16:41.817Z, 57.19
2023-02-08T06:17:41.764Z, 56.68
2023-02-08T06:18:41.763Z, 56.37
2023-02-08T06:19:41.863Z, 55.88
2023-02-08T06:20:42.271Z, 55.41
2023-02-08T06:21:41.876Z, 55.05
2023-02-08T06:22:41.894Z, 54.72
2023-02-08T06:23:41.906Z, 54.42
2023-02-08T06:24:41.887Z, 54.15
2023-02-08T06:25:41.925Z, 53.85
2023-02-08T06:26:41.925Z, 53.62
2023-02-08T06:27:41.904Z, 53.34
2023-02-08T06:28:41.911Z, 53.16
2023-02-08T06:29:41.902Z, 52.95
2023-02-08T06:30:42.233Z, 52.67
2023-02-08T06:31:42.023Z, 52.44
2023-02-08T06:32:42.002Z, 52.24
2023-02-08T06:33:42.004Z, 52.03
2023-02-08T06:34:42.007Z, 51.86
2023-02-08T06:35:41.993Z, 51.60
2023-02-08T06:36:42.000Z, 51.44
2023-02-08T06:37:42.002Z, 51.23
2023-02-08T06:38:42.012Z, 51.06
2023-02-08T06:39:42.015Z, 50.87
2023-02-08T06:40:42.264Z, 50.73
2023-02-08T06:41:42.039Z, 50.54
2023-02-08T06:42:42.059Z, 50.38
2023-02-08T06:43:42.073Z, 50.22
2023-02-08T06:44:54.084Z, 50.05
2023-02-08T06:45:42.156Z, 49.86
2023-02-08T06:46:42.093Z, 49.71
2023-02-08T06:47:42.130Z, 49.57
2023-02-08T06:48:42.161Z, 49.40
2023-02-08T06:49:42.150Z, 49.26
2023-02-08T06:50:42.675Z, 49.09
2023-02-08T06:51:42.213Z, 48.95
2023-02-08T06:52:42.200Z, 48.84
2023-02-08T06:53:42.253Z, 48.73
2023-02-08T06:54:42.278Z, 48.62
2023-02-08T06:55:42.246Z, 48.51
2023-02-08T06:56:42.258Z, 48.40
2023-02-08T06:57:42.264Z, 48.21
2023-02-08T06:58:42.297Z, 48.10
2023-02-08T06:59:42.324Z, 47.96
2023-02-08T07:00:42.635Z, 47.92
2023-02-08T07:01:42.336Z, 47.79
2023-02-08T07:02:42.369Z, 47.68
2023-02-08T07:03:42.316Z, 47.56
2023-02-08T07:04:42.309Z, 47.44
2023-02-08T07:05:49.454Z, 47.30
2023-02-08T07:06:42.337Z, 47.22
2023-02-08T07:07:42.426Z, 47.11
2023-02-08T07:08:42.398Z, 46.96
2023-02-08T07:09:42.431Z, 46.97
2023-02-08T07:10:44.579Z, 46.88
2023-02-08T07:11:42.439Z, 46.79
2023-02-08T07:12:42.416Z, 46.66
2023-02-08T07:13:42.425Z, 46.53
2023-02-08T07:14:42.458Z, 46.44
2023-02-08T07:15:42.460Z, 46.38
2023-02-08T07:16:42.556Z, 46.25
2023-02-08T07:17:42.550Z, 46.18
2023-02-08T07:18:42.594Z, 46.04
2023-02-08T07:19:42.560Z, 46.03
2023-02-08T07:20:42.662Z, 45.95
2023-02-08T07:21:42.562Z, 45.92
2023-02-08T07:22:42.552Z, 45.81
2023-02-08T07:23:42.562Z, 45.74
2023-02-08T07:24:42.568Z, 45.65
2023-02-08T07:25:42.572Z, 45.59
2023-02-08T07:26:42.566Z, 45.54
2023-02-08T07:27:42.586Z, 45.45
2023-02-08T07:28:42.611Z, 45.43
2023-02-08T07:29:42.643Z, 45.33
2023-02-08T07:30:43.038Z, 45.26
2023-02-08T07:31:42.694Z, 45.24
2023-02-08T07:32:42.675Z, 45.15
2023-02-08T07:33:42.684Z, 45.08
2023-02-08T07:34:42.710Z, 45.03
2023-02-08T07:35:42.721Z, 44.93
2023-02-08T07:36:42.725Z, 44.86
2023-02-08T07:37:42.734Z, 44.80
2023-02-08T07:38:42.752Z, 44.79
2023-02-08T07:39:42.749Z, 44.72
2023-02-08T07:40:42.971Z, 44.68
2023-02-08T07:41:42.776Z, 44.58
2023-02-08T07:42:42.781Z, 44.52
2023-02-08T07:43:42.865Z, 44.49
2023-02-08T07:44:42.861Z, 44.44
2023-02-08T07:45:42.854Z, 44.38
2023-02-08T07:46:42.864Z, 44.30
2023-02-08T07:47:42.851Z, 44.24
2023-02-08T07:48:42.856Z, 44.21
2023-02-08T07:49:42.887Z, 44.17
2023-02-08T07:50:42.877Z, 44.13
2023-02-08T07:51:42.972Z, 44.06
2023-02-08T07:52:42.962Z, 43.95
2023-02-08T07:53:42.980Z, 43.90
2023-02-08T07:54:42.987Z, 43.82
2023-02-08T07:55:42.979Z, 43.82
2023-02-08T07:56:42.958Z, 43.79
2023-02-08T07:57:43.026Z, 43.73
2023-02-08T07:58:43.043Z, 43.61
2023-02-08T07:59:43.030Z, 43.65
2023-02-08T08:00:43.047Z, 43.57
2023-02-08T08:01:43.056Z, 43.52
2023-02-08T08:02:43.085Z, 43.50
2023-02-08T08:03:43.116Z, 43.46
2023-02-08T08:04:43.068Z, 43.39
2023-02-08T08:05:43.104Z, 43.40
2023-02-08T08:06:43.122Z, 43.35
2023-02-08T08:07:43.131Z, 43.26
2023-02-08T08:08:43.112Z, 43.15
2023-02-08T08:09:43.111Z, 43.22
2023-02-08T08:10:43.102Z, 43.20
2023-02-08T08:11:43.107Z, 43.13
2023-02-08T08:12:43.163Z, 43.09
2023-02-08T08:13:43.183Z, 43.06
2023-02-08T08:14:43.167Z, 42.96
2023-02-08T08:15:43.229Z, 42.87
2023-02-08T08:16:43.212Z, 42.84
2023-02-08T08:17:43.204Z, 42.74
2023-02-08T08:18:43.212Z, 42.72
2023-02-08T08:19:43.236Z, 42.74
2023-02-08T08:20:43.232Z, 42.74
2023-02-08T08:21:43.228Z, 42.65
2023-02-08T08:22:43.243Z, 42.65
2023-02-08T08:23:43.245Z, 42.58
2023-02-08T08:24:43.252Z, 42.58
2023-02-08T08:25:43.261Z, 42.57
2023-02-08T08:26:43.303Z, 42.52
2023-02-08T08:27:43.311Z, 42.44
2023-02-08T08:28:43.367Z, 42.40
2023-02-08T08:29:43.376Z, 42.34
2023-02-08T08:30:43.688Z, 42.28
2023-02-08T08:31:43.390Z, 42.27
2023-02-08T08:32:43.374Z, 42.22
2023-02-08T08:33:43.409Z, 42.17
2023-02-08T08:34:43.401Z, 42.12
2023-02-08T08:35:43.413Z, 42.11
2023-02-08T08:36:43.457Z, 42.08
2023-02-08T08:37:43.475Z, 42.06
2023-02-08T08:38:43.554Z, 41.99
2023-02-08T08:39:43.550Z, 41.99
2023-02-08T08:40:43.754Z, 41.93
2023-02-08T08:41:43.562Z, 41.88
2023-02-08T08:42:43.527Z, 41.89
2023-02-08T08:43:43.519Z, 41.85
2023-02-08T08:44:43.522Z, 41.80
2023-02-08T08:45:43.520Z, 41.78
2023-02-08T08:46:43.604Z, 41.70
2023-02-08T08:47:43.516Z, 41.77
2023-02-08T08:48:43.538Z, 41.77
2023-02-08T08:49:43.556Z, 41.77
2023-02-08T08:50:43.612Z, 41.71
2023-02-08T08:51:43.588Z, 41.64
2023-02-08T08:52:43.604Z, 41.63
2023-02-08T08:53:43.618Z, 41.59
2023-02-08T08:54:43.617Z, 41.53
2023-02-08T08:55:45.669Z, 41.47
2023-02-08T08:56:43.663Z, 41.44
2023-02-08T08:57:43.668Z, 41.45
2023-02-08T08:58:43.719Z, 41.34
2023-02-08T08:59:43.680Z, 41.30
2023-02-08T09:00:43.761Z, 41.30
2023-02-08T09:01:43.746Z, 41.28
2023-02-08T09:02:43.727Z, 41.23
2023-02-08T09:03:43.797Z, 41.19
2023-02-08T09:04:43.792Z, 41.13
2023-02-08T09:05:43.792Z, 41.12
2023-02-08T09:06:43.812Z, 41.05
2023-02-08T09:07:43.823Z, 41.06
2023-02-08T09:08:43.829Z, 41.09
2023-02-08T09:09:43.809Z, 41.07
2023-02-08T09:10:44.076Z, 41.08
2023-02-08T09:11:43.839Z, 41.03
2023-02-08T09:12:43.874Z, 40.95
2023-02-08T09:13:43.831Z, 40.91
2023-02-08T09:14:43.897Z, 40.89
2023-02-08T09:15:43.949Z, 40.92
2023-02-08T09:16:43.899Z, 40.96
2023-02-08T09:17:43.905Z, 40.89
2023-02-08T09:18:43.945Z, 40.79
2023-02-08T09:19:43.928Z, 40.78
2023-02-08T09:20:44.411Z, 40.74
2023-02-08T09:21:43.982Z, 40.75
2023-02-08T09:22:43.947Z, 40.72
2023-02-08T09:23:43.984Z, 40.63
2023-02-08T09:24:44.034Z, 40.52
2023-02-08T09:25:44.017Z, 40.52
2023-02-08T09:26:44.022Z, 40.47
2023-02-08T09:27:44.016Z, 40.50
2023-02-08T09:28:44.031Z, 40.50
2023-02-08T09:29:44.015Z, 40.43
2023-02-08T09:30:44.364Z, 40.37
2023-02-08T09:31:44.092Z, 40.33
2023-02-08T09:32:44.039Z, 40.37
2023-02-08T09:33:44.051Z, 40.31
2023-02-08T09:34:44.133Z, 40.33
2023-02-08T09:35:44.309Z, 40.31
2023-02-08T09:36:44.102Z, 40.20
2023-02-08T09:37:44.104Z, 40.23
2023-02-08T09:38:44.109Z, 40.16
2023-02-08T09:39:44.199Z, 40.19
2023-02-08T09:40:44.535Z, 40.12
2023-02-08T09:41:44.175Z, 40.07
2023-02-08T09:42:44.177Z, 40.10
2023-02-08T09:43:44.184Z, 40.11
2023-02-08T09:44:44.199Z, 40.07
2023-02-08T09:45:57.840Z, 40.04
2023-02-08T09:46:44.248Z, 40.05
2023-02-08T09:47:44.252Z, 40.01
2023-02-08T09:48:44.264Z, 39.97
2023-02-08T09:49:44.258Z, 39.97
2023-02-08T09:50:44.526Z, 39.99
2023-02-08T09:51:44.344Z, 39.97
2023-02-08T09:52:44.325Z, 39.89
2023-02-08T09:53:44.356Z, 39.81
2023-02-08T09:54:44.327Z, 39.81
2023-02-08T09:55:44.374Z, 39.80
2023-02-08T09:56:44.464Z, 39.75
2023-02-08T09:57:44.441Z, 39.72
2023-02-08T09:58:44.475Z, 39.67
2023-02-08T09:59:44.432Z, 39.68
2023-02-08T10:00:44.864Z, 39.69
2023-02-08T10:01:44.445Z, 39.68
2023-02-08T10:02:44.431Z, 39.60
2023-02-08T10:03:44.437Z, 39.55
2023-02-08T10:04:44.431Z, 39.57
2023-02-08T10:05:44.438Z, 39.51
2023-02-08T10:06:44.441Z, 39.49
2023-02-08T10:07:44.458Z, 39.50
2023-02-08T10:08:44.485Z, 39.45
2023-02-08T10:09:44.496Z, 39.46
2023-02-08T10:10:44.788Z, 39.47
2023-02-08T10:11:44.542Z, 39.48
2023-02-08T10:12:44.617Z, 39.44
2023-02-08T10:13:44.645Z, 39.41
2023-02-08T10:14:44.595Z, 39.34
2023-02-08T10:15:44.648Z, 39.35
2023-02-08T10:16:44.644Z, 39.35
2023-02-08T10:17:44.660Z, 39.33
2023-02-08T10:18:44.649Z, 39.28
2023-02-08T10:19:44.669Z, 39.23
2023-02-08T10:20:44.972Z, 39.21
2023-02-08T10:21:44.660Z, 39.23
2023-02-08T10:22:44.652Z, 39.25
2023-02-08T10:23:44.741Z, 39.12
2023-02-08T10:24:44.705Z, 39.11
2023-02-08T10:25:44.716Z, 39.14
2023-02-08T10:26:44.742Z, 39.14
2023-02-08T10:27:44.700Z, 39.11
2023-02-08T10:28:44.713Z, 39.08
2023-02-08T10:29:44.716Z, 39.04
2023-02-08T10:30:45.236Z, 39.01
2023-02-08T10:31:44.893Z, 39.04
2023-02-08T10:32:44.834Z, 39.05
2023-02-08T10:33:44.805Z, 38.94
2023-02-08T10:34:44.841Z, 38.94
2023-02-08T10:35:45.150Z, 38.92
2023-02-08T10:36:44.826Z, 38.87
2023-02-08T10:37:44.827Z, 38.83
2023-02-08T10:38:46.973Z, 38.81
2023-02-08T10:39:44.854Z, 38.81
2023-02-08T10:40:45.072Z, 38.78
2023-02-08T10:41:44.861Z, 38.75
2023-02-08T10:42:44.898Z, 38.77
2023-02-08T10:43:44.949Z, 38.76
2023-02-08T10:44:46.456Z, 38.78
2023-02-08T10:45:45.264Z, 38.74
2023-02-08T10:46:44.988Z, 38.78
2023-02-08T10:47:44.978Z, 38.68
2023-02-08T10:48:45.000Z, 38.61
2023-02-08T10:49:45.007Z, 38.59
2023-02-08T10:50:45.024Z, 38.72
2023-02-08T10:51:45.093Z, 38.62
2023-02-08T10:52:45.005Z, 38.57
2023-02-08T10:53:45.003Z, 38.53
2023-02-08T10:54:45.047Z, 38.54
2023-02-08T10:55:45.367Z, 38.47
2023-02-08T10:56:45.109Z, 38.51
2023-02-08T10:57:45.091Z, 38.46
2023-02-08T10:58:45.076Z, 38.40
2023-02-08T10:59:45.089Z, 38.36
2023-02-08T11:00:45.100Z, 38.38
2023-02-08T11:01:45.148Z, 39.82
2023-02-08T11:02:45.104Z, 46.37
2023-02-08T11:03:45.113Z, 52.46
2023-02-08T11:04:45.129Z, 53.01
2023-02-08T11:05:45.338Z, 49.57
2023-02-08T11:06:45.195Z, 46.60
2023-02-08T11:07:45.164Z, 44.55
2023-02-08T11:08:45.170Z, 42.07
2023-02-08T11:09:45.184Z, 39.44
2023-02-08T11:10:45.199Z, 36.81
2023-02-08T11:11:45.235Z, 33.18
2023-02-08T11:12:45.244Z, 30.80
2023-02-08T11:13:45.223Z, 33.35
2023-02-08T11:14:47.414Z, 37.04
2023-02-08T11:15:45.465Z, 39.99
2023-02-08T11:16:45.312Z, 42.10
2023-02-08T11:17:45.260Z, 43.77
2023-02-08T11:18:45.257Z, 45.05
2023-02-08T11:19:45.328Z, 46.02
2023-02-08T11:20:45.323Z, 46.85
2023-02-08T11:21:45.374Z, 47.73
2023-02-08T11:22:45.374Z, 49.16
2023-02-08T11:23:45.350Z, 51.06
2023-02-08T11:24:45.402Z, 53.05
2023-02-08T11:25:45.376Z, 53.65
2023-02-08T11:26:45.387Z, 51.35
2023-02-08T11:27:45.420Z, 48.86
2023-02-08T11:28:45.374Z, 46.49
2023-02-08T11:29:45.402Z, 44.48
2023-02-08T11:30:45.562Z, 43.26
2023-02-08T11:31:45.434Z, 43.73
2023-02-08T11:32:45.412Z, 43.53
2023-02-08T11:33:45.409Z, 43.47
2023-02-08T11:34:45.406Z, 43.52
2023-02-08T11:35:45.591Z, 43.50
2023-02-08T11:36:45.442Z, 43.44
2023-02-08T11:37:45.533Z, 43.32
2023-02-08T11:38:45.502Z, 43.20
2023-02-08T11:39:45.500Z, 43.11
2023-02-08T11:40:45.501Z, 43.00
2023-02-08T11:41:45.506Z, 42.90
2023-02-08T11:42:45.514Z, 42.78
2023-02-08T11:43:45.535Z, 42.65
2023-02-08T11:44:45.535Z, 42.46
2023-02-08T11:45:45.848Z, 42.32
2023-02-08T11:46:45.597Z, 42.19
2023-02-08T11:47:45.582Z, 42.08
2023-02-08T11:48:45.721Z, 41.93
2023-02-08T11:49:45.658Z, 41.82
2023-02-08T11:50:45.651Z, 41.66
2023-02-08T11:51:45.663Z, 41.50
2023-02-08T11:52:45.695Z, 41.38
2023-02-08T11:53:45.720Z, 41.25
2023-02-08T11:54:45.753Z, 41.06
2023-02-08T11:55:45.730Z, 40.94
2023-02-08T11:56:45.726Z, 40.81
2023-02-08T11:57:45.713Z, 40.63
2023-02-08T11:58:45.751Z, 40.51
2023-02-08T11:59:45.752Z, 40.37
2023-02-08T12:00:45.769Z, 40.24
2023-02-08T12:01:45.775Z, 40.11
2023-02-08T12:02:45.825Z, 39.96
2023-02-08T12:03:45.890Z, 39.81
2023-02-08T12:04:45.762Z, 39.69
2023-02-08T12:05:45.767Z, 39.56
2023-02-08T12:06:45.801Z, 39.44
2023-02-08T12:07:45.840Z, 39.30
2023-02-08T12:08:45.850Z, 39.19
2023-02-08T12:09:45.854Z, 39.11
2023-02-08T12:10:45.839Z, 38.99
2023-02-08T12:11:45.926Z, 38.88
2023-02-08T12:12:45.918Z, 38.77
2023-02-08T12:13:45.911Z, 38.64
2023-02-08T12:14:45.976Z, 38.51
2023-02-08T12:15:57.822Z, 38.41
2023-02-08T12:16:45.962Z, 38.28
2023-02-08T12:17:46.007Z, 38.20
2023-02-08T12:18:46.032Z, 38.09
2023-02-08T12:19:46.004Z, 37.99
2023-02-08T12:20:46.019Z, 37.91
2023-02-08T12:21:46.048Z, 37.81
2023-02-08T12:22:46.065Z, 37.74
2023-02-08T12:23:46.046Z, 37.64
2023-02-08T12:24:46.033Z, 37.55
2023-02-08T12:25:46.040Z, 37.45
2023-02-08T12:26:46.036Z, 37.39
2023-02-08T12:27:46.147Z, 37.31
2023-02-08T12:28:46.146Z, 37.24